createdAt,value
2022-10-30T00:01:32.379Z,24.67
2022-10-30T00:03:58.610Z,22.30
2022-10-30T00:06:24.899Z,20.97
2022-10-30T00:08:51.147Z,22.87
2022-10-30T00:11:17.352Z,26.13
2022-10-30T00:13:44.683Z,24.87
2022-10-30T00:16:10.994Z,22.07
2022-10-30T00:18:38.554Z,23.77
2022-10-30T00:21:09.302Z,22.77
2022-10-30T00:23:35.741Z,21.90
2022-10-30T00:26:02.665Z,24.03
2022-10-30T00:28:28.874Z,26.53
2022-10-30T00:30:58.133Z,21.47
2022-10-30T00:33:24.351Z,24.13
2022-10-30T00:35:50.566Z,23.40
2022-10-30T00:38:16.865Z,26.97
2022-10-30T00:40:43.078Z,23.30
2022-10-30T00:43:28.150Z,24.30
2022-10-30T00:45:54.786Z,20.93
2022-10-30T00:48:23.299Z,28.17
2022-10-30T00:50:49.599Z,29.17
2022-10-30T00:53:17.497Z,24.60
2022-10-30T00:55:52.506Z,22.80
2022-10-30T00:58:20.764Z,24.03
2022-10-30T01:00:50.818Z,23.27
2022-10-30T01:03:17.953Z,25.03
2022-10-30T01:05:45.572Z,25.67
2022-10-30T01:08:11.815Z,28.10
2022-10-30T01:10:38.974Z,26.50
2022-10-30T01:13:05.282Z,30.13
2022-10-30T01:15:35.722Z,28.60
2022-10-30T01:18:13.318Z,26.97
2022-10-30T01:20:39.510Z,28.60
2022-10-30T01:23:11.893Z,26.10
2022-10-30T01:25:47.474Z,26.93
2022-10-30T01:28:32.092Z,26.13
2022-10-30T01:31:21.564Z,27.23
2022-10-30T01:34:07.290Z,22.23
2022-10-30T01:36:37.309Z,25.80
2022-10-30T01:39:07.478Z,24.90
2022-10-30T01:41:33.690Z,26.57
2022-10-30T01:44:02.473Z,23.63
2022-10-30T01:46:34.137Z,24.10
2022-10-30T01:49:15.498Z,28.13
2022-10-30T01:52:04.906Z,27.43
2022-10-30T01:54:49.900Z,28.23
2022-10-30T01:57:21.427Z,22.87
2022-10-30T01:59:50.630Z,33.93
2022-10-30T02:02:16.984Z,23.80
2022-10-30T02:04:43.642Z,26.63
2022-10-30T02:07:11.367Z,31.13
2022-10-30T02:09:38.107Z,24.87
2022-10-30T02:12:04.403Z,25.57
2022-10-30T02:14:33.016Z,29.40
2022-10-30T02:17:00.743Z,26.20
2022-10-30T02:19:26.966Z,25.80
2022-10-30T02:21:53.261Z,25.07
2022-10-30T02:24:19.486Z,28.03
2022-10-30T02:26:45.713Z,24.33
2022-10-30T02:29:12.055Z,23.80
2022-10-30T02:31:38.417Z,28.80
2022-10-30T02:34:04.685Z,21.77
2022-10-30T02:36:30.906Z,25.77
2022-10-30T02:38:57.239Z,24.93
2022-10-30T02:41:23.858Z,29.23
2022-10-30T02:43:53.575Z,30.50
2022-10-30T02:46:20.062Z,23.50
2022-10-30T02:48:46.356Z,23.37
2022-10-30T02:51:12.570Z,26.50
2022-10-30T02:53:38.834Z,25.07
2022-10-30T02:56:05.844Z,28.37
2022-10-30T02:58:32.082Z,24.37
2022-10-30T03:00:58.408Z,23.40
2022-10-30T03:03:24.658Z,21.80
2022-10-30T03:05:50.876Z,23.67
2022-10-30T03:08:17.109Z,22.33
2022-10-30T03:10:43.317Z,23.07
2022-10-30T03:13:09.578Z,24.80
2022-10-30T03:15:35.811Z,25.50
2022-10-30T03:18:02.020Z,23.37
2022-10-30T03:20:28.222Z,21.03
2022-10-30T03:22:54.479Z,22.50
2022-10-30T03:25:23.761Z,23.20
2022-10-30T03:27:50.427Z,25.17
2022-10-30T03:30:16.675Z,23.20
2022-10-30T03:32:42.891Z,25.30
2022-10-30T03:35:09.126Z,22.57
2022-10-30T03:37:35.398Z,25.03
2022-10-30T03:40:01.599Z,20.10
2022-10-30T03:42:27.813Z,26.37
2022-10-30T03:44:54.013Z,23.60
2022-10-30T03:47:20.287Z,26.57
2022-10-30T03:49:46.489Z,27.63
2022-10-30T03:52:12.739Z,24.60
2022-10-30T03:54:38.945Z,25.00
2022-10-30T03:57:05.141Z,22.80
2022-10-30T03:59:31.375Z,28.30
2022-10-30T04:01:57.901Z,22.50
2022-10-30T04:04:24.331Z,22.23
2022-10-30T04:06:50.533Z,23.17
2022-10-30T04:09:16.764Z,26.07
2022-10-30T04:11:43.756Z,25.03
2022-10-30T04:14:09.994Z,23.40
2022-10-30T04:16:36.210Z,23.47
2022-10-30T04:19:02.426Z,23.07
2022-10-30T04:21:28.649Z,20.03
2022-10-30T04:23:54.867Z,22.07
2022-10-30T04:26:21.079Z,22.70
2022-10-30T04:28:47.842Z,23.53
2022-10-30T04:31:14.163Z,21.87
2022-10-30T04:33:40.396Z,26.43
2022-10-30T04:36:06.894Z,23.67
2022-10-30T04:38:33.137Z,25.13
2022-10-30T04:40:59.355Z,21.10
2022-10-30T04:43:25.576Z,25.97
2022-10-30T04:45:51.858Z,20.57
2022-10-30T04:48:18.402Z,19.60
2022-10-30T04:50:44.836Z,21.83
2022-10-30T04:53:15.252Z,25.73
2022-10-30T04:55:41.866Z,23.77
2022-10-30T04:58:09.335Z,23.77
2022-10-30T05:00:35.903Z,26.40
2022-10-30T05:03:02.614Z,23.73
2022-10-30T05:05:30.437Z,21.60
2022-10-30T05:07:57.127Z,23.07
2022-10-30T05:10:23.645Z,22.80
2022-10-30T05:12:52.088Z,22.07
2022-10-30T05:15:18.412Z,24.17
2022-10-30T05:17:44.641Z,22.23
2022-10-30T05:20:14.751Z,20.33
2022-10-30T05:22:42.643Z,21.13
2022-10-30T05:25:08.928Z,21.70
2022-10-30T05:27:35.121Z,23.17
2022-10-30T05:30:01.487Z,21.23
2022-10-30T05:32:27.698Z,24.63
2022-10-30T05:34:53.908Z,23.70
2022-10-30T05:37:20.122Z,23.47
2022-10-30T05:39:46.334Z,23.20
2022-10-30T05:42:13.808Z,23.40
2022-10-30T05:44:59.668Z,23.77
2022-10-30T05:47:26.561Z,21.70
2022-10-30T05:49:52.779Z,19.47
2022-10-30T05:52:19.003Z,22.73
2022-10-30T05:54:45.226Z,24.83
2022-10-30T05:57:11.461Z,24.00
2022-10-30T05:59:37.696Z,23.67
2022-10-30T06:02:03.986Z,21.50
2022-10-30T06:04:30.240Z,29.83
2022-10-30T06:06:56.449Z,25.03
2022-10-30T06:09:22.720Z,20.77
2022-10-30T06:11:49.001Z,20.73
2022-10-30T06:14:15.212Z,18.60
2022-10-30T06:16:41.442Z,22.57
2022-10-30T06:19:07.716Z,21.67
2022-10-30T06:21:33.944Z,19.53
2022-10-30T06:24:00.161Z,23.83
2022-10-30T06:26:26.390Z,22.07
2022-10-30T06:28:52.727Z,18.43
2022-10-30T06:33:50.173Z,19.13
2022-10-30T06:36:17.517Z,23.73
2022-10-30T06:38:43.765Z,21.37
2022-10-30T06:41:09.973Z,18.13
2022-10-30T06:43:36.255Z,19.70
2022-10-30T06:46:02.549Z,19.70
2022-10-30T06:48:28.893Z,23.60
2022-10-30T06:50:58.853Z,24.93
2022-10-30T06:53:25.485Z,18.97
2022-10-30T06:55:58.915Z,21.43
2022-10-30T06:58:25.756Z,24.90
2022-10-30T07:00:52.182Z,21.77
2022-10-30T07:03:18.446Z,18.57
2022-10-30T07:05:44.760Z,18.93
2022-10-30T07:08:10.979Z,18.27
2022-10-30T07:10:37.264Z,24.00
2022-10-30T07:13:03.714Z,17.00
2022-10-30T07:15:30.076Z,21.10
2022-10-30T07:17:57.862Z,19.60
2022-10-30T07:20:25.119Z,19.03
2022-10-30T07:22:51.428Z,19.63
2022-10-30T07:25:18.171Z,14.73
2022-10-30T07:27:45.304Z,17.77
2022-10-30T07:30:16.209Z,19.93
2022-10-30T07:32:42.563Z,20.23
2022-10-30T07:35:09.558Z,20.53
2022-10-30T07:37:35.879Z,18.60
2022-10-30T07:40:02.102Z,18.70
2022-10-30T07:42:28.308Z,19.00
2022-10-30T07:44:54.553Z,17.90
2022-10-30T07:47:20.845Z,20.87
2022-10-30T07:49:47.057Z,19.83
2022-10-30T07:52:17.198Z,18.27
2022-10-30T07:54:43.786Z,19.50
2022-10-30T07:57:09.990Z,20.63
2022-10-30T07:59:36.289Z,21.67
2022-10-30T08:02:02.682Z,15.87
2022-10-30T08:04:28.993Z,17.43
2022-10-30T08:06:55.244Z,15.00
2022-10-30T08:09:21.451Z,20.03
2022-10-30T08:11:47.731Z,15.30
2022-10-30T08:14:13.977Z,22.60
2022-10-30T08:16:40.195Z,15.47
2022-10-30T08:19:06.463Z,15.37
2022-10-30T08:21:32.746Z,20.03
2022-10-30T08:23:59.017Z,15.50
2022-10-30T08:26:25.227Z,23.10
2022-10-30T08:28:51.463Z,16.97
2022-10-30T08:31:18.703Z,21.10
2022-10-30T08:33:44.929Z,15.80
2022-10-30T08:36:11.149Z,16.30
2022-10-30T08:38:37.385Z,13.90
2022-10-30T08:41:03.596Z,15.80
2022-10-30T08:43:29.880Z,14.67
2022-10-30T08:45:57.561Z,20.73
2022-10-30T08:48:23.790Z,16.83
2022-10-30T08:50:49.988Z,11.57
2022-10-30T08:53:16.275Z,17.10
2022-10-30T08:55:42.758Z,15.80
2022-10-30T08:58:09.045Z,15.03
2022-10-30T09:00:35.638Z,16.30
2022-10-30T09:03:02.346Z,10.97
2022-10-30T09:05:28.996Z,16.20
2022-10-30T09:07:55.920Z,16.97
2022-10-30T09:10:22.245Z,15.80
2022-10-30T09:12:48.453Z,18.17
2022-10-30T09:15:14.787Z,16.60
2022-10-30T09:17:40.998Z,16.10
2022-10-30T09:20:07.390Z,16.13
2022-10-30T09:22:33.619Z,15.13
2022-10-30T09:24:59.827Z,14.40
2022-10-30T09:27:27.491Z,13.43
2022-10-30T09:29:53.748Z,16.10
2022-10-30T09:32:21.005Z,13.97
2022-10-30T09:34:47.351Z,14.13
2022-10-30T09:37:13.575Z,16.43
2022-10-30T09:39:39.823Z,19.13
2022-10-30T09:42:24.732Z,19.47
2022-10-30T09:47:53.449Z,12.47
2022-10-30T09:50:29.412Z,13.57
2022-10-30T09:53:02.065Z,12.60
2022-10-30T09:55:31.701Z,12.03
2022-10-30T09:58:01.095Z,14.20
2022-10-30T10:00:47.621Z,12.70
2022-10-30T10:03:21.521Z,14.77
2022-10-30T10:05:52.759Z,15.90
2022-10-30T10:08:20.845Z,14.50
2022-10-30T10:10:51.266Z,15.00
2022-10-30T10:13:29.385Z,12.40
2022-10-30T10:16:15.977Z,16.53
2022-10-30T10:18:51.529Z,19.07
2022-10-30T10:21:27.971Z,12.07
2022-10-30T10:24:01.479Z,11.87
2022-10-30T10:26:35.918Z,9.90
2022-10-30T10:29:14.474Z,12.13
2022-10-30T10:31:40.754Z,10.30
2022-10-30T10:34:16.129Z,14.07
2022-10-30T10:36:46.302Z,13.97
2022-10-30T10:39:18.481Z,13.87
2022-10-30T10:41:52.632Z,18.57
2022-10-30T10:44:52.566Z,13.00
2022-10-30T10:47:32.309Z,15.93
2022-10-30T10:50:15.981Z,11.60
2022-10-30T10:52:51.517Z,15.03
2022-10-30T10:55:19.425Z,13.80
2022-10-30T10:57:46.721Z,14.30
2022-10-30T11:00:16.355Z,20.30
2022-10-30T11:02:59.088Z,13.47
2022-10-30T11:05:44.187Z,17.00
2022-10-30T11:08:13.376Z,12.77
2022-10-30T11:10:40.049Z,16.80
2022-10-30T11:13:06.554Z,12.60
2022-10-30T11:15:39.552Z,14.13
2022-10-30T11:20:57.105Z,11.27
2022-10-30T11:23:30.127Z,15.90
2022-10-30T11:25:57.403Z,17.47
2022-10-30T11:28:31.997Z,12.87
2022-10-30T11:31:17.100Z,14.47
2022-10-30T11:33:43.338Z,14.43
2022-10-30T11:36:15.517Z,13.70
2022-10-30T11:38:42.282Z,13.07
2022-10-30T11:41:10.460Z,14.57
2022-10-30T11:43:37.656Z,15.33
2022-10-30T11:46:09.140Z,10.93
2022-10-30T11:48:37.696Z,10.57
2022-10-30T11:51:04.369Z,14.43
2022-10-30T11:53:36.489Z,12.80
2022-10-30T11:56:04.266Z,15.43
2022-10-30T11:58:32.462Z,11.10
2022-10-30T12:01:34.228Z,12.13
2022-10-30T12:04:22.177Z,10.30
2022-10-30T12:06:49.457Z,12.20
2022-10-30T12:09:22.070Z,14.67
2022-10-30T12:11:49.048Z,15.50
2022-10-30T12:14:22.368Z,15.67
2022-10-30T12:16:49.997Z,15.07
2022-10-30T12:19:16.724Z,13.47
2022-10-30T12:21:47.335Z,14.27
2022-10-30T12:24:34.065Z,13.37
2022-10-30T12:27:04.526Z,12.87
2022-10-30T12:30:13.509Z,14.40
2022-10-30T12:32:51.450Z,17.13
2022-10-30T12:35:36.217Z,18.37
2022-10-30T12:38:04.335Z,14.80
2022-10-30T12:40:31.574Z,12.73
2022-10-30T12:43:05.190Z,17.37
2022-10-30T12:45:34.536Z,14.33
2022-10-30T12:48:04.131Z,10.87
2022-10-30T12:50:37.440Z,14.03
2022-10-30T12:53:18.675Z,13.83
2022-10-30T12:55:49.863Z,16.07
2022-10-30T12:58:25.403Z,12.50
2022-10-30T13:00:59.518Z,11.17
2022-10-30T13:03:31.162Z,14.83
2022-10-30T13:06:00.487Z,16.13
2022-10-30T13:08:32.716Z,14.67
2022-10-30T13:11:17.455Z,13.07
2022-10-30T13:13:46.921Z,16.27
2022-10-30T13:16:16.522Z,15.53
2022-10-30T13:18:42.808Z,14.27
2022-10-30T13:21:28.388Z,12.27
2022-10-30T13:24:00.583Z,13.13
2022-10-30T13:26:39.730Z,13.43
2022-10-30T13:29:22.487Z,17.13
2022-10-30T13:31:54.951Z,16.77
2022-10-30T13:34:59.798Z,15.30
2022-10-30T13:37:28.877Z,14.70
2022-10-30T13:40:03.946Z,14.87
2022-10-30T13:42:41.248Z,13.43
2022-10-30T13:45:07.596Z,15.57
2022-10-30T13:47:42.751Z,12.37
2022-10-30T13:50:09.013Z,14.37
2022-10-30T13:52:36.936Z,13.63
2022-10-30T13:55:19.244Z,15.27
2022-10-30T13:57:49.948Z,12.27
2022-10-30T14:00:29.364Z,16.03
2022-10-30T14:03:11.482Z,15.37
2022-10-30T14:05:49.749Z,12.53
2022-10-30T14:08:33.131Z,10.73
2022-10-30T14:11:00.902Z,17.80
2022-10-30T14:13:45.045Z,13.20
2022-10-30T14:16:31.633Z,11.83
2022-10-30T14:19:01.921Z,14.97
2022-10-30T14:21:37.608Z,14.97
2022-10-30T14:24:22.485Z,16.80
2022-10-30T14:27:09.267Z,14.30
2022-10-30T14:29:35.690Z,15.47
2022-10-30T14:32:02.862Z,15.90
2022-10-30T14:34:45.442Z,12.50
2022-10-30T14:37:12.477Z,20.40
2022-10-30T14:39:42.675Z,15.73
2022-10-30T14:42:11.732Z,17.57
2022-10-30T14:44:44.954Z,11.47
2022-10-30T14:47:14.217Z,14.87
2022-10-30T14:49:44.574Z,14.33
2022-10-30T14:52:23.566Z,17.13
2022-10-30T14:55:05.498Z,17.83
2022-10-30T14:57:47.691Z,13.87
2022-10-30T15:00:23.075Z,21.03
2022-10-30T15:02:58.141Z,16.40
2022-10-30T15:05:37.216Z,15.13
2022-10-30T15:08:27.935Z,16.13
2022-10-30T15:11:15.309Z,17.30
2022-10-30T15:13:48.212Z,19.00
2022-10-30T15:16:15.539Z,14.20
2022-10-30T15:18:44.757Z,25.03
2022-10-30T15:21:18.548Z,15.97
2022-10-30T15:23:44.789Z,21.20
2022-10-30T15:26:19.278Z,14.93
2022-10-30T15:28:49.461Z,22.70
2022-10-30T15:31:18.554Z,22.80
2022-10-30T15:33:45.086Z,14.10
2022-10-30T15:36:17.147Z,19.40
2022-10-30T15:38:43.534Z,20.50
2022-10-30T15:41:09.806Z,15.40
2022-10-30T15:43:38.306Z,15.17
2022-10-30T15:46:10.636Z,16.90
2022-10-30T15:48:39.222Z,18.27
2022-10-30T15:51:05.513Z,17.90
2022-10-30T15:53:38.040Z,23.93
2022-10-30T15:56:05.392Z,13.23
2022-10-30T15:58:32.002Z,16.20
2022-10-30T16:00:59.241Z,18.07
2022-10-30T16:03:25.958Z,20.07
2022-10-30T16:06:02.976Z,16.67
2022-10-30T16:08:29.227Z,19.57
2022-10-30T16:10:55.865Z,13.03
2022-10-30T16:13:23.606Z,22.13
2022-10-30T16:15:50.228Z,13.33
2022-10-30T16:18:18.754Z,22.07
2022-10-30T16:20:48.045Z,14.57
2022-10-30T16:23:14.608Z,18.47
2022-10-30T16:25:46.750Z,14.77
2022-10-30T16:28:23.839Z,13.07
2022-10-30T16:30:50.283Z,16.93
2022-10-30T16:33:18.006Z,16.70
2022-10-30T16:35:55.553Z,20.10
2022-10-30T16:38:22.934Z,22.13
2022-10-30T16:40:49.226Z,18.07
2022-10-30T16:43:25.921Z,26.33
2022-10-30T16:45:52.447Z,19.97
2022-10-30T16:48:27.497Z,17.60
2022-10-30T16:51:00.933Z,17.27
2022-10-30T16:53:28.348Z,21.80
2022-10-30T16:55:55.456Z,22.87
2022-10-30T16:58:23.651Z,23.20
2022-10-30T17:00:57.540Z,16.03
2022-10-30T17:03:26.937Z,22.90
2022-10-30T17:05:57.447Z,18.80
2022-10-30T17:08:27.464Z,18.77
2022-10-30T17:10:58.814Z,28.80
2022-10-30T17:13:34.446Z,18.97
2022-10-30T17:16:13.881Z,24.07
2022-10-30T17:18:40.102Z,18.77
2022-10-30T17:21:08.144Z,20.23
2022-10-30T17:23:34.670Z,24.63
2022-10-30T17:26:07.664Z,23.80
2022-10-30T17:28:34.700Z,19.27
2022-10-30T17:31:20.469Z,20.83
2022-10-30T17:33:47.374Z,21.73
2022-10-30T17:36:13.917Z,20.80
2022-10-30T17:38:40.307Z,20.30
2022-10-30T17:41:08.195Z,18.90
2022-10-30T17:43:46.583Z,23.27
2022-10-30T17:46:19.120Z,21.63
2022-10-30T17:48:46.918Z,21.07
2022-10-30T17:51:13.624Z,22.53
2022-10-30T17:53:40.280Z,21.50
2022-10-30T17:56:11.088Z,21.40
2022-10-30T17:58:37.281Z,18.40
2022-10-30T18:01:03.656Z,20.87
2022-10-30T18:03:29.943Z,23.53
2022-10-30T18:05:56.410Z,24.13
2022-10-30T18:08:22.951Z,21.97
2022-10-30T18:10:49.211Z,19.80
2022-10-30T18:13:15.914Z,18.63
2022-10-30T18:15:43.838Z,22.73
2022-10-30T18:18:10.079Z,20.80
2022-10-30T18:20:36.629Z,23.63
2022-10-30T18:23:03.650Z,23.83
2022-10-30T18:25:34.655Z,24.17
2022-10-30T18:28:00.925Z,23.30
2022-10-30T18:30:29.040Z,24.27
2022-10-30T18:32:55.972Z,26.23
2022-10-30T18:35:26.036Z,25.00
2022-10-30T18:37:52.523Z,24.80
2022-10-30T18:40:21.829Z,27.73
2022-10-30T18:42:48.960Z,23.87
2022-10-30T18:45:28.404Z,25.77
2022-10-30T18:47:55.330Z,25.87
2022-10-30T18:50:23.120Z,24.30
2022-10-30T18:52:49.521Z,28.60
2022-10-30T18:55:20.785Z,24.13
2022-10-30T18:57:47.483Z,24.53
2022-10-30T19:00:15.462Z,25.27
2022-10-30T19:02:42.175Z,22.67
2022-10-30T19:05:28.136Z,21.00
2022-10-30T19:07:54.595Z,26.07
2022-10-30T19:10:20.834Z,25.07
2022-10-30T19:13:10.807Z,29.30
2022-10-30T19:15:35.062Z,25.73
2022-10-30T19:18:02.275Z,20.80
2022-10-30T19:20:44.052Z,22.20
2022-10-30T19:23:17.234Z,24.47
2022-10-30T19:25:44.452Z,22.40
2022-10-30T19:28:14.193Z,26.33
2022-10-30T19:30:40.991Z,25.90
2022-10-30T19:33:07.277Z,21.90
2022-10-30T19:35:33.491Z,29.07
2022-10-30T19:38:00.157Z,27.97
2022-10-30T19:40:32.267Z,28.43
2022-10-30T19:42:59.032Z,27.97
2022-10-30T19:45:26.522Z,24.63
2022-10-30T19:47:54.039Z,21.57
2022-10-30T19:50:27.797Z,30.70
2022-10-30T19:52:55.230Z,24.80
2022-10-30T19:55:21.949Z,26.90
2022-10-30T19:57:48.597Z,25.60
2022-10-30T20:00:15.100Z,27.73
2022-10-30T20:02:41.481Z,30.73
2022-10-30T20:05:10.122Z,30.77
2022-10-30T20:07:36.331Z,27.33
2022-10-30T20:10:02.620Z,30.90
2022-10-30T20:12:28.922Z,28.40
2022-10-30T20:14:55.133Z,33.93
2022-10-30T20:17:21.353Z,26.77
2022-10-30T20:19:47.569Z,25.90
2022-10-30T20:22:13.780Z,26.23
2022-10-30T20:24:40.063Z,22.57
2022-10-30T20:27:06.304Z,23.27
2022-10-30T20:29:33.417Z,24.80
2022-10-30T20:31:59.625Z,24.70
2022-10-30T20:34:25.847Z,29.23
2022-10-30T20:36:52.050Z,28.17
2022-10-30T20:39:18.361Z,31.73
2022-10-30T20:41:44.956Z,27.63
2022-10-30T20:44:12.381Z,25.60
2022-10-30T20:46:39.369Z,25.87
2022-10-30T20:49:16.970Z,26.43
2022-10-30T20:51:44.548Z,25.90
2022-10-30T20:54:11.114Z,26.20
2022-10-30T20:56:37.318Z,25.10
2022-10-30T20:59:03.613Z,24.33
2022-10-30T21:01:30.046Z,26.80
2022-10-30T21:04:00.675Z,28.03
2022-10-30T21:06:28.299Z,29.30
2022-10-30T21:08:54.547Z,31.47
2022-10-30T21:11:20.767Z,27.90
2022-10-30T21:13:47.019Z,27.30
2022-10-30T21:16:13.324Z,28.30
2022-10-30T21:18:39.554Z,25.53
2022-10-30T21:21:07.198Z,27.83
2022-10-30T21:23:33.438Z,26.10
2022-10-30T21:26:00.759Z,31.33
2022-10-30T21:28:26.980Z,29.43
2022-10-30T21:30:53.544Z,31.60
2022-10-30T21:33:20.434Z,24.27
2022-10-30T21:35:47.033Z,25.13
2022-10-30T21:38:13.883Z,28.43
2022-10-30T21:40:40.458Z,27.07
2022-10-30T21:43:07.610Z,33.93
2022-10-30T21:45:34.855Z,24.53
2022-10-30T21:48:01.643Z,31.37
2022-10-30T21:50:28.248Z,34.63
2022-10-30T21:52:55.331Z,24.87
2022-10-30T21:55:21.671Z,27.40
2022-10-30T21:57:48.428Z,28.23
2022-10-30T22:00:15.142Z,26.77
2022-10-30T22:02:42.085Z,35.10
2022-10-30T22:05:09.446Z,29.03
2022-10-30T22:07:36.376Z,28.50
2022-10-30T22:10:04.183Z,29.73
2022-10-30T22:12:31.382Z,25.00
2022-10-30T22:14:58.679Z,29.43
2022-10-30T22:17:28.241Z,28.23
2022-10-30T22:19:55.954Z,27.07
2022-10-30T22:22:22.910Z,26.40
2022-10-30T22:24:50.353Z,23.07
2022-10-30T22:27:16.614Z,28.60
2022-10-30T22:29:43.935Z,25.93
2022-10-30T22:32:11.048Z,28.53
2022-10-30T22:34:37.692Z,24.73
2022-10-30T22:37:04.245Z,31.27
2022-10-30T22:39:31.474Z,24.40
2022-10-30T22:41:58.392Z,22.53
2022-10-30T22:44:25.569Z,25.03
2022-10-30T22:46:53.079Z,27.23
2022-10-30T22:49:20.154Z,28.20
2022-10-30T22:51:47.165Z,27.20
2022-10-30T22:54:13.966Z,27.47
2022-10-30T22:56:42.355Z,29.23
2022-10-30T22:59:13.268Z,26.37
2022-10-30T23:01:40.896Z,24.37
2022-10-30T23:04:10.432Z,21.13
2022-10-30T23:06:37.589Z,26.33
2022-10-30T23:09:06.428Z,23.73
2022-10-30T23:11:33.247Z,27.93
2022-10-30T23:13:59.495Z,23.57
2022-10-30T23:16:26.191Z,27.43
2022-10-30T23:18:54.102Z,31.10
2022-10-30T23:21:21.447Z,24.40
2022-10-30T23:23:48.139Z,26.33
2022-10-30T23:26:15.771Z,21.93
2022-10-30T23:28:42.247Z,26.50
2022-10-30T23:31:44.162Z,31.47
2022-10-30T23:34:12.149Z,27.23
2022-10-30T23:36:38.418Z,21.53
2022-10-30T23:39:09.454Z,25.87
2022-10-30T23:41:35.697Z,24.30
2022-10-30T23:44:02.921Z,25.93
2022-10-30T23:46:29.143Z,31.17
2022-10-30T23:48:55.455Z,22.40
2022-10-30T23:51:22.045Z,25.50
2022-10-30T23:53:48.548Z,22.80
2022-10-30T23:56:15.147Z,23.67
2022-10-30T23:58:45.042Z,21.73
